Time;durP1;ratioP1;P1;durP2;ratioP2;P2;SDS_P1;SDS_P2;PMS_P1;PMS_P2;Temp;Humidity;BMP_temperature;BMP_pressure;BME280_temperature;BME280_humidity;BME280_pressure;Samples;Min_cycle;Max_cycle;Signal;HPM_P1;HPM_P2
2022/10/11 00:01:03;;;;;;;5.60;1.60;;;8.00;99.90;;;;;;4976458;28;20081;-71
2022/10/11 00:03:28;;;;;;;6.18;1.55;;;8.00;99.90;;;;;;4971153;28;20038;-71
2022/10/11 00:05:54;;;;;;;6.07;1.40;;;8.00;99.90;;;;;;4977940;28;20149;-71
2022/10/11 00:08:20;;;;;;;7.72;1.70;;;8.00;99.90;;;;;;4977550;28;20046;-71
2022/10/11 00:10:59;;;;;;;9.15;1.70;;;8.00;99.90;;;;;;4993969;28;20092;-71
2022/10/11 00:13:25;;;;;;;7.35;1.40;;;8.00;99.90;;;;;;4976711;28;20121;-71
2022/10/11 00:15:51;;;;;;;8.95;1.80;;;7.90;99.90;;;;;;4976337;28;20050;-71
2022/10/11 00:18:17;;;;;;;7.05;1.83;;;7.90;99.90;;;;;;4987095;28;20400;-71
2022/10/11 00:20:43;;;;;;;8.38;1.80;;;7.90;99.90;;;;;;4977288;28;20519;-71
2022/10/11 00:23:08;;;;;;;5.97;1.60;;;7.90;99.90;;;;;;4976720;28;20108;-71
2022/10/11 00:25:34;;;;;;;8.77;2.28;;;7.80;99.90;;;;;;4975585;28;20213;-71
2022/10/11 00:27:59;;;;;;;8.32;1.50;;;7.80;99.90;;;;;;4993259;28;20458;-71
2022/10/11 00:30:25;;;;;;;8.88;1.70;;;7.80;99.90;;;;;;4977157;28;20413;-71
2022/10/11 00:32:51;;;;;;;7.57;1.80;;;7.90;99.90;;;;;;4992590;28;20045;-71
2022/10/11 00:35:16;;;;;;;8.40;1.73;;;7.80;99.90;;;;;;5008548;28;20050;-71
2022/10/11 00:37:42;;;;;;;4.75;1.30;;;7.80;99.90;;;;;;4993452;28;20404;-70
2022/10/11 00:40:13;;;;;;;6.50;1.40;;;7.80;99.90;;;;;;4993200;28;20038;-71
2022/10/11 00:42:38;;;;;;;6.95;1.60;;;7.70;99.90;;;;;;4975731;28;20039;-71
2022/10/11 00:45:26;;;;;;;7.65;1.95;;;7.60;99.90;;;;;;4991118;28;20531;-71
2022/10/11 00:48:13;;;;;;;7.15;1.77;;;7.60;99.90;;;;;;4992911;28;20497;-71
2022/10/11 00:50:39;;;;;;;10.32;1.80;;;7.60;99.90;;;;;;4976743;28;20038;-70
2022/10/11 00:53:10;;;;;;;8.02;1.80;;;7.60;99.90;;;;;;4992388;28;20038;-71
2022/10/11 00:55:41;;;;;;;5.35;1.50;;;7.60;99.90;;;;;;4992177;28;20043;-71
2022/10/11 00:58:07;;;;;;;6.10;1.48;;;7.70;99.90;;;;;;5009126;28;20058;-71
2022/10/11 01:00:33;;;;;;;6.72;2.03;;;7.60;99.90;;;;;;5008064;28;20523;-70
2022/10/11 01:03:00;;;;;;;6.32;1.67;;;7.60;99.90;;;;;;4991491;28;20046;-70
2022/10/11 01:05:26;;;;;;;5.45;1.55;;;7.60;99.90;;;;;;4976519;28;20057;-70
2022/10/11 01:07:52;;;;;;;10.93;1.73;;;7.50;99.90;;;;;;4989310;28;20072;-71
2022/10/11 01:10:18;;;;;;;4.75;1.30;;;7.50;99.90;;;;;;4987329;28;20061;-71
2022/10/11 01:13:21;;;;;;;6.53;1.65;;;7.40;99.90;;;;;;4992752;28;20508;-71
2022/10/11 01:16:02;;;;;;;7.57;1.98;;;7.40;99.90;;;;;;5008996;28;20039;-71
2022/10/11 01:18:43;;;;;;;6.68;1.50;;;7.30;99.90;;;;;;4991621;28;20118;-71
2022/10/11 01:21:28;;;;;;;6.32;1.38;;;7.40;99.90;;;;;;4992901;28;20420;-71
2022/10/11 01:24:02;;;;;;;4.03;1.30;;;7.40;99.90;;;;;;4990833;28;20484;-71
2022/10/11 01:26:53;;;;;;;6.50;1.35;;;7.40;99.90;;;;;;4992753;28;20507;-71
2022/10/11 01:29:39;;;;;;;5.05;1.20;;;7.40;99.90;;;;;;4989494;28;20488;-71
2022/10/11 01:32:43;;;;;;;7.97;1.27;;;7.30;99.90;;;;;;4973352;28;20050;-71
2022/10/11 01:35:45;;;;;;;11.40;1.60;;;7.20;99.90;;;;;;4953327;28;20054;-71
2022/10/11 01:38:20;;;;;;;5.00;1.10;;;7.20;99.90;;;;;;4983123;28;20054;-71
2022/10/11 01:40:57;;;;;;;3.67;1.08;;;7.20;99.90;;;;;;4974174;28;20038;-71
2022/10/11 01:43:24;;;;;;;7.82;1.40;;;7.10;99.90;;;;;;4992432;28;20034;-71
2022/10/11 01:45:52;;;;;;;4.95;1.30;;;7.10;99.90;;;;;;4975226;28;20046;-71
2022/10/11 01:48:18;;;;;;;7.32;1.33;;;7.20;99.90;;;;;;5024203;28;20038;-71
2022/10/11 01:50:52;;;;;;;5.70;1.40;;;7.10;99.90;;;;;;4992303;28;20053;-71
2022/10/11 01:53:24;;;;;;;7.65;1.60;;;7.20;99.90;;;;;;5008625;28;20500;-71
2022/10/11 01:56:15;;;;;;;5.30;1.40;;;7.20;99.90;;;;;;4992234;28;20062;-71
2022/10/11 01:59:01;;;;;;;6.43;1.60;;;7.20;99.90;;;;;;4990839;28;20328;-71
2022/10/11 02:01:53;;;;;;;7.72;1.65;;;7.10;99.90;;;;;;4989058;28;20310;-71
2022/10/11 02:04:39;;;;;;;4.22;1.10;;;7.20;99.90;;;;;;4976675;28;20066;-71
2022/10/11 02:07:09;;;;;;;6.85;1.42;;;7.10;99.90;;;;;;4963614;28;20095;-71
2022/10/11 02:09:43;;;;;;;5.85;1.40;;;7.10;99.90;;;;;;4983702;28;20053;-71
2022/10/11 02:12:11;;;;;;;6.38;1.58;;;7.00;99.90;;;;;;4995051;28;20050;-71
2022/10/11 02:14:44;;;;;;;4.30;1.20;;;7.10;99.90;;;;;;4995824;28;20050;-71
2022/10/11 02:17:20;;;;;;;3.67;1.40;;;7.10;99.90;;;;;;4978793;28;20057;-71
2022/10/11 02:19:52;;;;;;;6.03;1.30;;;7.10;99.90;;;;;;4995672;28;20504;-70
2022/10/11 02:22:20;;;;;;;;;;;7.10;99.90;;;;;;4995193;28;20038;-71
2022/10/11 02:24:50;;;;;;;5.32;1.42;;;7.00;99.90;;;;;;5027717;28;20394;-71
2022/10/11 02:27:20;;;;;;;4.55;1.20;;;7.10;99.90;;;;;;5011059;28;20046;-71
2022/10/11 02:29:48;;;;;;;6.65;2.22;;;7.10;99.90;;;;;;4995752;28;20093;-71
2022/10/11 02:32:17;;;;;;;8.30;1.95;;;7.00;99.90;;;;;;5009383;28;20049;-71
2022/10/11 02:34:49;;;;;;;7.63;1.50;;;7.00;99.90;;;;;;4994759;28;20113;-71
2022/10/11 02:37:25;;;;;;;6.10;1.20;;;7.00;99.90;;;;;;4995363;28;20093;-70
2022/10/11 02:40:17;;;;;;;6.63;1.35;;;7.00;99.90;;;;;;4994143;28;20042;-71
2022/10/11 02:43:22;;;;;;;5.13;1.35;;;7.00;99.90;;;;;;5003318;28;20050;-71
2022/10/11 02:45:59;;;;;;;4.75;1.38;;;6.90;99.90;;;;;;4995317;28;20500;-70
2022/10/11 02:48:28;;;;;;;6.32;1.17;;;6.90;99.90;;;;;;5010576;28;20129;-71
2022/10/11 02:50:55;;;;;;;6.50;2.15;;;6.90;99.90;;;;;;4978198;28;20531;-71
2022/10/11 02:53:22;;;;;;;7.63;1.35;;;6.90;99.90;;;;;;4995164;28;20042;-70
2022/10/11 02:55:50;;;;;;;4.30;1.13;;;6.90;99.90;;;;;;5010012;28;20084;-71
2022/10/11 02:58:16;;;;;;;6.60;1.30;;;6.90;99.90;;;;;;4994811;28;20570;-71
2022/10/11 03:00:42;;;;;;;10.80;1.60;;;6.80;99.90;;;;;;4995068;28;20042;-71
2022/10/11 03:03:08;;;;;;;6.57;1.50;;;6.80;99.90;;;;;;4992814;28;20477;-71
2022/10/11 03:05:39;;;;;;;7.80;1.35;;;6.80;99.90;;;;;;4978019;28;20133;-71
2022/10/11 03:08:09;;;;;;;7.37;1.47;;;6.80;99.90;;;;;;4994959;28;20050;-71
2022/10/11 03:10:35;;;;;;;5.28;1.20;;;6.80;99.90;;;;;;5010105;28;20042;-71
2022/10/11 03:13:01;;;;;;;3.25;1.00;;;6.80;99.90;;;;;;5010875;28;20080;-71
2022/10/11 03:15:26;;;;;;;5.97;1.23;;;6.80;99.90;;;;;;4976897;28;20101;-71
2022/10/11 03:17:52;;;;;;;6.53;1.10;;;6.70;99.90;;;;;;5010041;28;20435;-71
2022/10/11 03:20:18;;;;;;;4.22;1.40;;;6.60;99.90;;;;;;4994607;28;20448;-71
2022/10/11 03:22:44;;;;;;;5.55;1.52;;;6.70;99.90;;;;;;4977981;28;20369;-71
2022/10/11 03:25:09;;;;;;;6.40;1.30;;;6.70;99.90;;;;;;4992928;28;20034;-71
2022/10/11 03:27:35;;;;;;;6.43;1.33;;;6.70;99.90;;;;;;4994535;28;20083;-71
2022/10/11 03:30:00;;;;;;;7.88;2.10;;;6.70;99.90;;;;;;4993713;28;20121;-71
2022/10/11 03:32:26;;;;;;;8.43;2.20;;;6.60;99.90;;;;;;5027580;28;20041;-71
2022/10/11 03:34:52;;;;;;;6.45;1.50;;;6.60;99.90;;;;;;5009763;28;20129;-71
2022/10/11 03:37:18;;;;;;;9.65;1.40;;;6.60;99.90;;;;;;5009567;28;20057;-71
2022/10/11 03:39:44;;;;;;;7.07;1.35;;;6.80;99.90;;;;;;4993360;28;20041;-70
2022/10/11 03:42:10;;;;;;;9.00;1.98;;;6.80;99.90;;;;;;4993378;28;20039;-71
2022/10/11 03:44:37;;;;;;;5.03;1.40;;;6.80;99.90;;;;;;4993548;28;20042;-70
2022/10/11 03:47:03;;;;;;;5.88;1.35;;;6.80;99.90;;;;;;5010532;28;20038;-70
2022/10/11 03:49:29;;;;;;;7.38;1.27;;;6.70;99.90;;;;;;4993472;28;20046;-71
2022/10/11 03:51:55;;;;;;;4.32;1.08;;;6.70;99.90;;;;;;4977920;28;20052;-70
2022/10/11 03:54:20;;;;;;;6.38;1.20;;;6.70;99.90;;;;;;4992984;28;20125;-70
2022/10/11 03:56:46;;;;;;;4.55;1.08;;;6.60;99.90;;;;;;4977560;28;20038;-70
2022/10/11 03:59:12;;;;;;;4.30;1.13;;;6.60;99.90;;;;;;4993915;28;20042;-70
2022/10/11 04:01:37;;;;;;;9.18;1.63;;;6.60;99.90;;;;;;4992236;28;20116;-70
2022/10/11 04:04:04;;;;;;;9.55;1.40;;;6.60;99.90;;;;;;4993151;28;20038;-70
2022/10/11 04:06:30;;;;;;;5.88;1.33;;;6.60;99.90;;;;;;4992626;28;20129;-70
2022/10/11 04:08:55;;;;;;;6.55;1.20;;;6.60;99.90;;;;;;4993666;28;20560;-70
2022/10/11 04:11:21;;;;;;;5.57;1.20;;;6.60;99.90;;;;;;4993785;28;20042;-70
2022/10/11 04:13:47;;;;;;;7.07;1.45;;;6.60;99.90;;;;;;4977047;28;20050;-70
2022/10/11 04:16:12;;;;;;;5.68;1.27;;;6.60;99.90;;;;;;4992960;28;20043;-70
2022/10/11 04:18:38;;;;;;;5.50;1.10;;;6.60;99.90;;;;;;5009804;28;20564;-70
2022/10/11 04:21:04;;;;;;;5.80;1.30;;;6.50;99.90;;;;;;4993454;28;20125;-70
2022/10/11 04:23:31;;;;;;;6.25;1.55;;;6.50;99.90;;;;;;4976111;28;20125;-70
2022/10/11 04:25:56;;;;;;;3.63;1.05;;;6.50;99.90;;;;;;4990567;28;20054;-70
2022/10/11 04:28:22;;;;;;;4.47;1.45;;;6.50;99.90;;;;;;4992635;28;20542;-70
2022/10/11 04:30:47;;;;;;;5.40;1.00;;;6.50;99.90;;;;;;4993296;28;20412;-70
2022/10/11 04:33:13;;;;;;;5.95;1.10;;;6.50;99.90;;;;;;4989362;28;20409;-70
2022/10/11 04:35:39;;;;;;;4.15;1.00;;;6.60;99.90;;;;;;4983491;28;20038;-70
2022/10/11 04:38:05;;;;;;;6.97;1.20;;;6.50;99.90;;;;;;4993210;28;20042;-70
2022/10/11 04:40:31;;;;;;;6.47;1.20;;;6.50;99.90;;;;;;5009699;28;20068;-70
2022/10/11 04:42:56;;;;;;;5.65;1.27;;;6.60;99.90;;;;;;4992293;28;20481;-70
2022/10/11 04:45:22;;;;;;;5.03;1.23;;;6.60;99.90;;;;;;4992178;28;20074;-70
2022/10/11 04:47:48;;;;;;;8.05;1.63;;;6.60;99.90;;;;;;4993075;28;20430;-70
2022/10/11 04:50:14;;;;;;;5.30;1.33;;;6.60;99.90;;;;;;4992692;28;20030;-71
2022/10/11 04:52:39;;;;;;;6.65;1.15;;;6.50;99.90;;;;;;5000236;28;20550;-70
2022/10/11 04:55:05;;;;;;;5.65;1.33;;;6.50;99.90;;;;;;4977726;28;20042;-70
2022/10/11 04:57:31;;;;;;;6.70;1.50;;;6.50;99.90;;;;;;4991262;28;20389;-70
2022/10/11 04:59:56;;;;;;;6.53;1.10;;;6.50;99.90;;;;;;4991901;28;20523;-71
2022/10/11 05:02:22;;;;;;;3.65;0.93;;;6.60;99.90;;;;;;4991998;28;20030;-70
2022/10/11 05:04:47;;;;;;;5.65;1.33;;;6.50;99.90;;;;;;5003790;28;20053;-70
2022/10/11 05:07:13;;;;;;;7.30;1.38;;;6.50;99.90;;;;;;4988782;28;20045;-70
2022/10/11 05:09:39;;;;;;;4.93;1.13;;;6.60;99.90;;;;;;4973021;28;20074;-70
2022/10/11 05:12:05;;;;;;;9.23;1.30;;;6.60;99.90;;;;;;4991424;28;20053;-70
2022/10/11 05:14:30;;;;;;;8.38;1.05;;;6.60;99.90;;;;;;4992953;28;20053;-70
2022/10/11 05:16:56;;;;;;;5.35;1.10;;;6.60;99.90;;;;;;5007820;28;20488;-70
2022/10/11 05:19:22;;;;;;;4.68;1.17;;;6.50;99.90;;;;;;4976847;28;20070;-70
2022/10/11 05:21:47;;;;;;;8.57;1.65;;;6.50;99.90;;;;;;4991849;28;20042;-70
2022/10/11 05:24:13;;;;;;;3.75;1.10;;;6.50;99.90;;;;;;4991495;28;20038;-70
2022/10/11 05:26:39;;;;;;;5.97;1.40;;;6.60;99.90;;;;;;5001006;28;20088;-70
2022/10/11 05:29:04;;;;;;;4.70;1.17;;;6.60;99.90;;;;;;4976250;28;20119;-70
2022/10/11 05:31:30;;;;;;;6.00;0.98;;;6.60;99.90;;;;;;4990483;28;20034;-70
2022/10/11 05:33:55;;;;;;;5.40;1.10;;;6.50;99.90;;;;;;5025139;28;20050;-70
2022/10/11 05:36:21;;;;;;;4.03;1.10;;;6.50;99.90;;;;;;4990549;28;20126;-70
2022/10/11 05:38:46;;;;;;;5.63;1.20;;;6.50;99.90;;;;;;4994888;28;20030;-70
2022/10/11 05:41:16;;;;;;;7.22;1.38;;;6.60;99.90;;;;;;5011746;28;20030;-70
2022/10/11 05:43:43;;;;;;;6.45;1.42;;;6.70;99.90;;;;;;5028301;28;20121;-70
2022/10/11 05:46:09;;;;;;;5.38;1.50;;;6.60;99.90;;;;;;5011997;28;20038;-70
2022/10/11 05:48:35;;;;;;;3.70;1.00;;;6.50;99.90;;;;;;4994588;28;20038;-70
2022/10/11 05:51:03;;;;;;;4.70;1.13;;;6.50;99.90;;;;;;4993142;28;20079;-70
2022/10/11 05:53:30;;;;;;;7.40;1.60;;;6.50;99.90;;;;;;4996300;28;20074;-70
2022/10/11 05:55:56;;;;;;;6.30;1.48;;;6.50;99.90;;;;;;5011647;28;20395;-70
2022/10/11 05:58:21;;;;;;;7.65;1.60;;;6.50;99.90;;;;;;4994974;28;20538;-70
2022/10/11 06:00:47;;;;;;;7.30;2.70;;;6.50;99.90;;;;;;5011424;28;20062;-70
2022/10/11 06:03:13;;;;;;;8.25;2.20;;;6.60;99.90;;;;;;5010844;28;20089;-70
2022/10/11 06:05:39;;;;;;;9.10;2.83;;;6.70;99.90;;;;;;4994420;28;20034;-70
2022/10/11 06:08:07;;;;;;;10.57;2.38;;;6.70;99.90;;;;;;4994791;28;20112;-70
2022/10/11 06:10:33;;;;;;;8.02;2.67;;;6.70;99.90;;;;;;4994846;28;20046;-70
2022/10/11 06:12:59;;;;;;;7.95;2.25;;;6.70;99.90;;;;;;4978961;28;20049;-70
2022/10/11 06:15:25;;;;;;;7.43;2.28;;;6.70;99.90;;;;;;4994337;28;20038;-70
2022/10/11 06:17:51;;;;;;;6.07;1.92;;;6.70;99.90;;;;;;4977840;28;20038;-70
2022/10/11 06:20:17;;;;;;;6.57;1.90;;;6.70;99.90;;;;;;5010872;28;20045;-70
2022/10/11 06:22:42;;;;;;;9.63;2.03;;;6.70;99.90;;;;;;4993799;28;20404;-70
2022/10/11 06:25:08;;;;;;;5.90;1.98;;;6.70;99.90;;;;;;4999850;28;20034;-70
2022/10/11 06:27:34;;;;;;;5.43;1.83;;;6.70;99.90;;;;;;4979402;28;20053;-70
2022/10/11 06:29:59;;;;;;;4.60;1.42;;;6.70;99.90;;;;;;4977072;28;20061;-70
2022/10/11 06:32:25;;;;;;;5.85;1.40;;;6.70;99.90;;;;;;4995482;28;20176;-70
2022/10/11 06:34:51;;;;;;;6.65;1.77;;;6.70;99.90;;;;;;4994740;28;20485;-70
2022/10/11 06:37:16;;;;;;;6.90;1.50;;;6.70;99.90;;;;;;4994631;28;20477;-70
2022/10/11 06:39:42;;;;;;;7.50;1.33;;;6.70;99.90;;;;;;4993756;28;20034;-70
2022/10/11 06:42:10;;;;;;;7.47;1.20;;;6.70;99.90;;;;;;4992408;28;20042;-70
2022/10/11 06:44:36;;;;;;;4.68;1.30;;;6.80;99.90;;;;;;4978038;28;20062;-70
2022/10/11 06:47:01;;;;;;;6.22;1.33;;;6.80;99.90;;;;;;4992862;28;20136;-70
2022/10/11 06:49:27;;;;;;;6.78;1.38;;;6.70;99.90;;;;;;4976175;28;20034;-70
2022/10/11 06:51:52;;;;;;;5.07;1.25;;;6.70;99.90;;;;;;4992870;28;20142;-70
2022/10/11 06:54:18;;;;;;;7.53;1.50;;;6.70;99.90;;;;;;5009791;28;20077;-70
2022/10/11 06:56:44;;;;;;;6.38;1.55;;;6.80;99.90;;;;;;4994214;28;20535;-70
2022/10/11 06:59:11;;;;;;;5.65;1.80;;;6.80;99.90;;;;;;4992057;28;20058;-70
2022/10/11 07:01:36;;;;;;;4.10;1.55;;;6.80;99.90;;;;;;4986371;28;20046;-70
2022/10/11 07:04:02;;;;;;;4.82;1.55;;;6.80;99.90;;;;;;5003422;28;20538;-70
2022/10/11 07:06:29;;;;;;;5.70;1.80;;;6.80;99.90;;;;;;5009859;28;20412;-70
2022/10/11 07:08:55;;;;;;;8.25;1.60;;;6.90;99.90;;;;;;4990756;28;20145;-70
2022/10/11 07:11:26;;;;;;;8.30;1.48;;;7.10;99.90;;;;;;5023909;28;20117;-70
2022/10/11 07:13:57;;;;;;;16.48;2.03;;;7.10;99.90;;;;;;5010259;28;20105;-70
2022/10/11 07:16:24;;;;;;;7.77;1.73;;;7.10;99.90;;;;;;5003554;28;20041;-70
2022/10/11 07:18:57;;;;;;;5.90;1.80;;;7.20;99.90;;;;;;4977823;28;20050;-71
2022/10/11 07:21:22;;;;;;;7.65;1.70;;;7.30;99.90;;;;;;4992913;28;20038;-70
2022/10/11 07:23:48;;;;;;;9.57;2.00;;;7.40;99.90;;;;;;4994081;28;20085;-70
2022/10/11 07:26:14;;;;;;;6.05;1.65;;;7.40;99.90;;;;;;4992429;28;20034;-70
2022/10/11 07:28:40;;;;;;;8.95;2.08;;;7.50;99.90;;;;;;4992516;28;20451;-70
2022/10/11 07:31:11;;;;;;;6.72;1.77;;;7.50;99.90;;;;;;4991664;28;20060;-70
2022/10/11 07:33:37;;;;;;;10.50;1.77;;;7.60;99.90;;;;;;4976266;28;20042;-70
2022/10/11 07:36:04;;;;;;;8.43;1.80;;;7.70;99.90;;;;;;4975401;28;20042;-70
2022/10/11 07:38:29;;;;;;;8.02;2.00;;;7.70;99.90;;;;;;5009024;28;20050;-70
2022/10/11 07:40:55;;;;;;;7.57;1.70;;;7.70;99.90;;;;;;4994189;28;20065;-70
2022/10/11 07:43:21;;;;;;;5.47;2.00;;;7.80;99.90;;;;;;4992958;28;21272;-71
2022/10/11 07:45:52;;;;;;;7.80;1.85;;;7.80;99.90;;;;;;4993283;28;20057;-70
2022/10/11 07:48:18;;;;;;;7.03;1.83;;;7.90;99.90;;;;;;4985158;28;20149;-70
2022/10/11 07:50:43;;;;;;;8.93;2.05;;;8.00;99.90;;;;;;4984537;28;20129;-70
2022/10/11 07:53:09;;;;;;;6.55;1.75;;;8.10;99.90;;;;;;4992359;28;20074;-70
2022/10/11 07:55:39;;;;;;;7.93;1.90;;;8.00;99.90;;;;;;5005851;28;20115;-70
2022/10/11 07:58:09;;;;;;;9.75;1.90;;;8.10;99.90;;;;;;5019044;28;20544;-70
2022/10/11 08:00:35;;;;;;;10.48;2.17;;;8.20;99.90;;;;;;5003944;28;20042;-70
2022/10/11 08:03:08;;;;;;;7.10;1.80;;;8.30;99.90;;;;;;4976910;28;20042;-70
2022/10/11 08:05:35;;;;;;;6.63;1.83;;;8.40;99.90;;;;;;4992394;28;20522;-70
2022/10/11 08:08:01;;;;;;;9.50;2.15;;;8.50;99.90;;;;;;4975966;28;20497;-70
2022/10/11 08:10:27;;;;;;;6.38;1.65;;;8.60;99.90;;;;;;4991389;28;20045;-70
2022/10/11 08:12:52;;;;;;;7.72;1.80;;;8.60;99.90;;;;;;4992115;28;20046;-71
2022/10/11 08:15:18;;;;;;;7.78;1.77;;;8.70;99.90;;;;;;5008649;28;20404;-81
2022/10/11 08:17:44;;;;;;;10.52;1.73;;;8.80;99.90;;;;;;4976876;28;20088;-81
2022/10/11 08:20:10;;;;;;;8.02;1.70;;;9.00;99.90;;;;;;5008329;28;20113;-81
2022/10/11 08:22:36;;;;;;;9.20;1.83;;;9.10;99.90;;;;;;5008601;28;20527;-72
2022/10/11 08:25:01;;;;;;;11.45;2.03;;;9.30;99.90;;;;;;4991470;28;20428;-72
2022/10/11 08:27:27;;;;;;;10.50;2.53;;;9.50;99.90;;;;;;4992881;28;20042;-72
2022/10/11 08:29:52;;;;;;;6.88;1.92;;;9.60;99.90;;;;;;4991585;28;20066;-72
2022/10/11 08:32:18;;;;;;;11.95;2.10;;;9.70;99.90;;;;;;5008179;28;20125;-72
2022/10/11 08:34:43;;;;;;;15.48;2.30;;;9.90;99.90;;;;;;4990963;28;20038;-72
2022/10/11 08:37:09;;;;;;;10.10;2.13;;;10.00;99.90;;;;;;4991595;28;20038;-72
2022/10/11 08:39:34;;;;;;;14.95;2.28;;;10.10;99.90;;;;;;4991492;28;20040;-72
2022/10/11 08:42:10;;;;;;;8.93;1.92;;;10.10;99.90;;;;;;4974926;28;20492;-72
2022/10/11 08:44:54;;;;;;;13.25;2.20;;;10.10;99.90;;;;;;4985107;28;20125;-72
2022/10/11 08:47:24;;;;;;;8.32;1.70;;;10.20;99.90;;;;;;4979785;28;20048;-72
2022/10/11 08:49:50;;;;;;;8.52;2.60;;;10.30;99.90;;;;;;4990721;28;20400;-72
2022/10/11 08:53:03;;;;;;;10.15;2.20;;;10.50;99.90;;;;;;4976179;28;20049;-72
2022/10/11 08:55:38;;;;;;;9.73;1.80;;;10.60;99.90;;;;;;4985700;28;20138;-72
2022/10/11 08:58:04;;;;;;;8.50;1.60;;;10.80;99.90;;;;;;4975441;28;20054;-72
2022/10/11 09:00:34;;;;;;;10.27;1.83;;;10.80;99.90;;;;;;4975285;28;20049;-72
2022/10/11 09:03:34;;;;;;;10.27;1.83;;;10.90;99.90;;;;;;4990726;28;20038;-72
2022/10/11 09:06:05;;;;;;;9.15;2.28;;;11.00;99.90;;;;;;4986810;28;20042;-72
2022/10/11 09:09:09;;;;;;;7.70;1.80;;;11.10;99.90;;;;;;4980102;28;20122;-72
2022/10/11 09:12:06;;;;;;;6.93;1.30;;;11.30;99.90;;;;;;4989336;28;20100;-73
2022/10/11 09:14:49;;;;;;;7.78;2.08;;;11.50;99.90;;;;;;4991235;28;20118;-73
2022/10/11 09:17:36;;;;;;;12.75;2.15;;;11.50;99.90;;;;;;4989115;28;20047;-72
2022/10/11 09:20:18;;;;;;;10.10;2.00;;;11.60;99.90;;;;;;4991912;28;20092;-73
2022/10/11 09:22:52;;;;;;;8.00;2.17;;;11.70;99.90;;;;;;4991269;28;20046;-72
2022/10/11 09:25:21;;;;;;;9.73;2.05;;;11.90;99.90;;;;;;4972246;28;20046;-73
2022/10/11 09:27:53;;;;;;;7.80;1.42;;;11.90;99.90;;;;;;4975469;28;20373;-73
2022/10/11 09:30:19;;;;;;;10.60;1.92;;;12.10;99.90;;;;;;4993362;28;20061;-73
2022/10/11 09:32:56;;;;;;;14.43;2.33;;;12.30;99.90;;;;;;5002542;28;20184;-73
2022/10/11 09:35:22;;;;;;;8.82;1.63;;;12.40;99.90;;;;;;4990984;28;20043;-73
2022/10/11 09:37:54;;;;;;;13.63;1.95;;;12.40;99.90;;;;;;4987221;28;20038;-73
2022/10/11 09:40:52;;;;;;;;;;;12.50;99.90;;;;;;4976280;28;20573;-73
2022/10/11 09:43:18;;;;;;;11.80;2.45;;;12.60;99.90;;;;;;4958751;28;19961;-73
2022/10/11 09:45:45;;;;;;;10.82;1.70;;;12.80;99.90;;;;;;4990273;28;20078;-73
2022/10/11 09:48:30;;;;;;;8.57;2.05;;;12.90;99.90;;;;;;4972374;28;20405;-73
2022/10/11 09:51:06;;;;;;;12.18;2.10;;;13.10;99.90;;;;;;4997386;28;20042;-73
2022/10/11 09:53:59;;;;;;;10.43;2.00;;;13.00;99.90;;;;;;4977514;28;20377;-73
2022/10/11 09:56:28;;;;;;;13.57;2.42;;;13.10;99.90;;;;;;4991751;28;20508;-73
2022/10/11 09:59:26;;;;;;;11.27;2.03;;;13.20;99.90;;;;;;4989866;28;20407;-73
2022/10/11 10:02:11;;;;;;;10.20;1.80;;;13.20;99.90;;;;;;4991705;28;20038;-74
2022/10/11 10:04:53;;;;;;;9.27;2.00;;;13.30;99.90;;;;;;5006704;28;20041;-74
2022/10/11 10:07:20;;;;;;;8.52;1.73;;;13.40;99.90;;;;;;4974535;28;20511;-74
2022/10/11 10:09:46;;;;;;;12.88;1.85;;;13.50;99.90;;;;;;5000697;28;20448;-74
2022/10/11 10:12:18;;;;;;;12.02;1.88;;;13.60;99.90;;;;;;4975354;28;20077;-74
2022/10/11 10:15:03;;;;;;;16.80;4.20;;;13.70;99.90;;;;;;4974198;28;20100;-74
2022/10/11 10:17:29;;;;;;;11.07;2.15;;;13.60;99.90;;;;;;4990522;28;20454;-74
2022/10/11 10:19:55;;;;;;;17.48;2.30;;;13.60;99.90;;;;;;4977758;28;20082;-74
2022/10/11 10:22:26;;;;;;;12.32;2.17;;;13.60;99.90;;;;;;5003542;28;20493;-74
2022/10/11 10:24:53;;;;;;;13.35;1.98;;;13.70;99.90;;;;;;4994600;28;20488;-74
2022/10/11 10:27:20;;;;;;;17.98;2.17;;;13.70;99.90;;;;;;4994717;28;20123;-74
2022/10/11 10:30:08;;;;;;;11.13;1.88;;;13.70;99.90;;;;;;4976590;28;20085;-74
2022/10/11 10:33:02;;;;;;;13.00;2.20;;;13.80;99.90;;;;;;4992565;28;20551;-75
2022/10/11 10:35:30;;;;;;;10.85;1.90;;;13.80;99.90;;;;;;4993690;28;20513;-75
2022/10/11 10:38:05;;;;;;;7.78;1.67;;;13.80;99.90;;;;;;4977139;28;20061;-74
2022/10/11 10:40:42;;;;;;;12.15;2.10;;;13.80;99.90;;;;;;4994014;28;20097;-75
2022/10/11 10:43:18;;;;;;;11.40;2.15;;;13.80;99.90;;;;;;5004003;28;20500;-75
2022/10/11 10:46:02;;;;;;;8.65;1.90;;;13.80;99.90;;;;;;4989919;28;20092;-75
2022/10/11 10:48:49;;;;;;;10.02;1.83;;;13.80;99.90;;;;;;4995331;28;20141;-75
2022/10/11 10:51:39;;;;;;;11.13;1.90;;;13.90;99.90;;;;;;4991854;28;20038;-75
2022/10/11 10:54:34;;;;;;;11.80;1.88;;;13.90;99.90;;;;;;4994776;28;20508;-75
2022/10/11 10:57:19;;;;;;;13.05;1.80;;;13.90;99.90;;;;;;5008994;28;20086;-75
2022/10/11 11:00:16;;;;;;;13.55;2.28;;;13.90;99.90;;;;;;4994616;28;20054;-75
2022/10/11 11:02:56;;;;;;;11.57;2.03;;;14.00;99.90;;;;;;4993706;28;20035;-75
2022/10/11 11:05:37;;;;;;;10.55;1.80;;;13.90;99.90;;;;;;4993672;28;20045;-75
2022/10/11 11:08:15;;;;;;;12.02;1.80;;;14.00;99.90;;;;;;4993513;28;20084;-75
2022/10/11 11:10:48;;;;;;;13.00;2.53;;;14.00;99.90;;;;;;4994362;28;20066;-75
2022/10/11 11:13:27;;;;;;;12.32;2.72;;;13.90;99.90;;;;;;4994189;28;20042;-75
2022/10/11 11:16:19;;;;;;;10.57;1.60;;;13.90;99.90;;;;;;5010117;28;20107;-75
2022/10/11 11:18:57;;;;;;;10.18;1.75;;;13.80;99.90;;;;;;4994724;28;20046;-75
2022/10/11 11:21:55;;;;;;;11.32;1.73;;;13.80;99.90;;;;;;4977660;28;20034;-75
2022/10/11 11:24:49;;;;;;;9.77;1.70;;;13.70;99.90;;;;;;4975837;28;20053;-75
2022/10/11 11:27:30;;;;;;;12.48;2.55;;;13.60;99.90;;;;;;4964591;28;20054;-75
2022/10/11 11:30:09;;;;;;;11.20;2.22;;;13.50;99.90;;;;;;4976692;28;20042;-75
2022/10/11 11:32:50;;;;;;;9.50;1.60;;;13.50;99.90;;;;;;4977998;28;20081;-75
2022/10/11 11:35:46;;;;;;;11.82;1.70;;;13.40;99.90;;;;;;4992216;28;20125;-75
2022/10/11 11:38:41;;;;;;;10.93;2.05;;;13.30;99.90;;;;;;4992825;28;20042;-75
2022/10/11 11:41:19;;;;;;;8.43;1.52;;;13.30;99.90;;;;;;4994012;28;20508;-75
2022/10/11 11:44:21;;;;;;;11.73;1.90;;;13.40;99.90;;;;;;4977087;28;20580;-75
2022/10/11 11:46:56;;;;;;;10.53;1.77;;;13.50;99.90;;;;;;4989704;28;20068;-75
2022/10/11 11:49:38;;;;;;;12.75;1.83;;;13.50;99.90;;;;;;5010111;28;20779;-75
2022/10/11 11:52:05;;;;;;;;;;;13.50;99.90;;;;;;4993350;28;20387;-75
2022/10/11 11:54:49;;;;;;;10.73;1.70;;;13.60;99.90;;;;;;4987249;28;20359;-75
2022/10/11 11:57:23;;;;;;;8.65;1.52;;;13.60;99.90;;;;;;4988096;28;20054;-75
2022/10/11 11:59:59;;;;;;;10.00;2.30;;;13.70;99.90;;;;;;5010114;28;20042;-75
2022/10/11 12:02:44;;;;;;;11.57;2.63;;;13.70;99.90;;;;;;4990789;28;20042;-75
2022/10/11 12:05:13;;;;;;;8.68;1.58;;;13.70;99.90;;;;;;4993161;28;20500;-75
2022/10/11 12:07:56;;;;;;;10.40;1.77;;;13.60;99.90;;;;;;4976374;28;20129;-75
2022/10/11 12:10:30;;;;;;;12.65;2.10;;;13.60;99.90;;;;;;4992476;28;20058;-75
2022/10/11 12:13:08;;;;;;;9.48;2.20;;;13.70;99.90;;;;;;4992365;28;20125;-76
2022/10/11 12:15:35;;;;;;;10.40;1.95;;;13.70;99.90;;;;;;5009468;28;20042;-75
2022/10/11 12:18:03;;;;;;;9.02;1.73;;;13.80;99.90;;;;;;4990990;28;20081;-75
2022/10/11 12:20:36;;;;;;;12.55;2.08;;;13.80;99.90;;;;;;5008475;28;20042;-75
2022/10/11 12:23:17;;;;;;;11.13;1.90;;;13.80;99.90;;;;;;4990511;28;20484;-75
2022/10/11 12:25:44;;;;;;;10.75;2.03;;;13.80;99.90;;;;;;4990822;28;20034;-75
2022/10/11 12:28:41;;;;;;;11.63;1.50;;;13.90;99.90;;;;;;4999142;28;20039;-75
2022/10/11 12:31:25;;;;;;;7.03;1.77;;;13.90;99.90;;;;;;4992360;28;20047;-75
2022/10/11 12:34:00;;;;;;;12.40;2.35;;;14.00;99.90;;;;;;4988280;28;20031;-77
2022/10/11 12:36:40;;;;;;;10.73;1.90;;;13.90;99.90;;;;;;4976022;28;20034;-76
2022/10/11 12:39:18;;;;;;;10.82;2.05;;;13.90;99.90;;;;;;5022396;28;20116;-76
2022/10/11 12:42:05;;;;;;;9.30;2.05;;;14.00;99.90;;;;;;4992689;28;20050;-75
2022/10/11 12:44:31;;;;;;;11.35;1.95;;;14.00;99.90;;;;;;4998077;28;20070;-75
2022/10/11 12:47:04;;;;;;;9.82;1.63;;;14.00;99.90;;;;;;5005120;28;20078;-75
2022/10/11 12:49:31;;;;;;;12.20;2.08;;;14.00;99.90;;;;;;4973504;28;20453;-76
2022/10/11 12:52:15;;;;;;;7.60;1.90;;;14.10;99.90;;;;;;4980456;28;20038;-76
2022/10/11 12:55:05;;;;;;;11.60;1.52;;;14.10;99.90;;;;;;4983625;28;20068;-75
2022/10/11 12:58:03;;;;;;;10.63;2.00;;;14.10;99.90;;;;;;4975092;28;20137;-75
2022/10/11 13:00:51;;;;;;;12.18;2.38;;;14.10;99.90;;;;;;4994716;28;20050;-75
2022/10/11 13:03:38;;;;;;;8.00;2.00;;;14.20;99.90;;;;;;4967586;28;20516;-75
2022/10/11 13:06:34;;;;;;;10.02;1.77;;;14.20;99.90;;;;;;5008562;28;20050;-75
2022/10/11 13:09:25;;;;;;;9.57;1.60;;;14.20;99.90;;;;;;4987661;28;20117;-75
2022/10/11 13:12:05;;;;;;;9.15;1.40;;;14.20;99.90;;;;;;4983779;28;20818;-76
2022/10/11 13:14:37;;;;;;;9.90;1.92;;;14.20;99.90;;;;;;4974617;28;20046;-75
2022/10/11 13:17:04;;;;;;;7.93;1.90;;;14.20;99.90;;;;;;4984772;28;20527;-76